Time;durP1;ratioP1;P1;durP2;ratioP2;P2;SDS_P1;SDS_P2;PMS_P1;PMS_P2;Temp;Humidity;BMP_temperature;BMP_pressure;BME280_temperature;BME280_humidity;BME280_pressure;Samples;Min_cycle;Max_cycle;Signal;HPM_P1;HPM_P2
2022/04/14 00:01:13;;;;;;;5.70;3.60;;;13.10;89.40;;;;;;4897070;29;20028;-84
2022/04/14 00:03:40;;;;;;;5.82;3.75;;;13.10;89.50;;;;;;4883101;29;20259;-84
2022/04/14 00:06:06;;;;;;;4.47;3.17;;;13.00;89.60;;;;;;4900390;29;20032;-83
2022/04/14 00:08:32;;;;;;;4.85;3.10;;;13.00;89.70;;;;;;4870632;29;20628;-83
2022/04/14 00:10:58;;;;;;;4.82;3.17;;;13.00;89.60;;;;;;4911130;29;20039;-84
2022/04/14 00:13:23;;;;;;;5.00;3.33;;;13.00;89.60;;;;;;4855214;29;20060;-84
2022/04/14 00:15:49;;;;;;;4.85;3.58;;;13.00;89.80;;;;;;4891074;29;20028;-84
2022/04/14 00:18:15;;;;;;;5.38;3.25;;;13.00;89.90;;;;;;4900601;29;20031;-84
2022/04/14 00:20:41;;;;;;;5.20;3.37;;;12.90;89.90;;;;;;4903672;29;20312;-84
2022/04/14 00:23:07;;;;;;;6.45;3.55;;;12.90;89.90;;;;;;4883783;29;20036;-84
2022/04/14 00:25:32;;;;;;;4.53;2.97;;;12.90;90.00;;;;;;4886181;29;20253;-84
2022/04/14 00:27:58;;;;;;;4.95;3.25;;;12.90;90.00;;;;;;4897308;29;20032;-83
2022/04/14 00:30:23;;;;;;;5.90;3.57;;;12.90;90.00;;;;;;4905379;29;20076;-83
2022/04/14 00:32:49;;;;;;;5.20;3.53;;;12.90;90.00;;;;;;4875305;29;20090;-83
2022/04/14 00:35:15;;;;;;;5.33;3.60;;;12.90;90.00;;;;;;4895119;29;20040;-84
2022/04/14 00:37:41;;;;;;;5.47;3.58;;;12.80;90.10;;;;;;4889355;29;20055;-84
2022/04/14 00:40:07;;;;;;;5.10;3.23;;;12.90;90.40;;;;;;4891835;29;20392;-84
2022/04/14 00:42:33;;;;;;;5.57;3.53;;;12.90;90.10;;;;;;4909613;28;20405;-84
2022/04/14 00:44:59;;;;;;;4.50;3.25;;;12.90;90.20;;;;;;4893850;29;20433;-84
2022/04/14 00:47:25;;;;;;;5.43;3.53;;;12.80;90.20;;;;;;4884556;29;20035;-83
2022/04/14 00:49:51;;;;;;;6.43;3.72;;;12.80;90.20;;;;;;4899003;29;20403;-83
2022/04/14 00:52:16;;;;;;;5.47;3.77;;;12.80;90.20;;;;;;4900356;29;20409;-84
2022/04/14 00:54:42;;;;;;;6.75;4.05;;;12.80;90.20;;;;;;4871569;29;20031;-84
2022/04/14 00:57:08;;;;;;;6.55;4.13;;;12.80;90.20;;;;;;4913425;29;20020;-83
2022/04/14 00:59:34;;;;;;;6.63;3.87;;;12.80;90.20;;;;;;4873897;29;20183;-83
2022/04/14 01:02:00;;;;;;;5.65;3.88;;;12.80;90.30;;;;;;4886777;29;20086;-83
2022/04/14 01:04:27;;;;;;;5.70;3.90;;;12.80;90.30;;;;;;4894414;29;20028;-84
2022/04/14 01:06:53;;;;;;;6.65;4.32;;;12.80;90.30;;;;;;4919250;28;20424;-84
2022/04/14 01:09:19;;;;;;;6.32;4.22;;;12.80;90.30;;;;;;4896584;29;20112;-84
2022/04/14 01:11:51;;;;;;;6.97;4.10;;;12.70;90.30;;;;;;4875698;29;20151;-83
2022/04/14 01:14:30;;;;;;;6.60;4.35;;;12.80;90.40;;;;;;4865450;29;20028;-83
2022/04/14 01:16:58;;;;;;;6.57;4.30;;;12.80;90.40;;;;;;4879584;29;20051;-83
2022/04/14 01:19:24;;;;;;;6.43;3.95;;;12.80;90.40;;;;;;4896709;29;20733;-84
2022/04/14 01:22:12;;;;;;;6.57;4.32;;;12.70;90.30;;;;;;4892052;29;20023;-84
2022/04/14 01:24:39;;;;;;;7.33;4.20;;;12.70;90.30;;;;;;4896893;29;20301;-84
2022/04/14 01:27:04;;;;;;;5.25;3.83;;;12.70;90.30;;;;;;4920565;28;20032;-83
2022/04/14 01:29:31;;;;;;;5.68;3.85;;;12.70;90.30;;;;;;4880098;29;20191;-83
2022/04/14 01:31:58;;;;;;;5.97;4.20;;;12.70;90.30;;;;;;4893038;29;20040;-84
2022/04/14 01:34:25;;;;;;;6.15;4.07;;;12.70;90.30;;;;;;4897553;29;20043;-84
2022/04/14 01:36:51;;;;;;;5.93;4.23;;;12.60;90.30;;;;;;4881386;29;20267;-83
2022/04/14 01:39:16;;;;;;;6.60;4.22;;;12.60;90.30;;;;;;4893675;29;20312;-83
2022/04/14 01:41:43;;;;;;;6.45;4.03;;;12.60;90.30;;;;;;4883960;29;20074;-84
2022/04/14 01:44:10;;;;;;;6.50;4.20;;;12.60;90.30;;;;;;4894843;29;20523;-83
2022/04/14 01:46:37;;;;;;;5.90;4.30;;;12.60;90.30;;;;;;4877932;29;20595;-83
2022/04/14 01:49:03;;;;;;;6.10;4.35;;;12.60;90.40;;;;;;4885489;29;20222;-84
2022/04/14 01:51:30;;;;;;;5.80;3.80;;;12.50;90.40;;;;;;4899388;29;20195;-83
2022/04/14 01:53:56;;;;;;;6.32;4.20;;;12.50;90.40;;;;;;4901980;29;20032;-83
2022/04/14 01:56:22;;;;;;;5.70;4.00;;;12.50;90.40;;;;;;4896856;29;20039;-84
2022/04/14 01:58:49;;;;;;;5.78;4.07;;;12.50;90.40;;;;;;4890434;29;20415;-83
2022/04/14 02:01:15;;;;;;;5.82;4.18;;;12.40;90.30;;;;;;4880391;29;20075;-83
2022/04/14 02:03:40;;;;;;;5.90;4.03;;;12.40;90.30;;;;;;4882197;29;20643;-83
2022/04/14 02:06:06;;;;;;;5.63;4.00;;;12.40;90.30;;;;;;4915914;29;20032;-84
2022/04/14 02:08:32;;;;;;;5.68;3.85;;;12.40;90.30;;;;;;4887434;29;20249;-83
2022/04/14 02:10:58;;;;;;;5.73;3.70;;;12.40;90.30;;;;;;4902953;29;20034;-83
2022/04/14 02:13:23;;;;;;;5.57;3.77;;;12.40;90.40;;;;;;4868911;29;20272;-83
2022/04/14 02:15:49;;;;;;;5.33;3.87;;;12.30;90.30;;;;;;4876909;29;20107;-84
2022/04/14 02:18:14;;;;;;;4.88;3.65;;;12.30;90.30;;;;;;4872849;29;20036;-84
2022/04/14 02:20:40;;;;;;;7.40;4.47;;;12.30;90.30;;;;;;4883403;29;20421;-83
2022/04/14 02:23:06;;;;;;;6.75;4.32;;;12.30;90.40;;;;;;4888556;29;20543;-83
2022/04/14 02:25:32;;;;;;;7.03;4.27;;;12.30;90.40;;;;;;4905962;29;20272;-83
2022/04/14 02:27:57;;;;;;;5.97;3.95;;;12.30;90.50;;;;;;4905773;29;20682;-83
2022/04/14 02:30:23;;;;;;;5.67;4.00;;;12.30;90.50;;;;;;4898687;28;20660;-83
2022/04/14 02:32:49;;;;;;;6.35;4.35;;;12.20;90.50;;;;;;4892008;29;20038;-83
2022/04/14 02:35:15;;;;;;;6.70;4.27;;;12.20;90.50;;;;;;4876589;29;20655;-83
2022/04/14 02:37:40;;;;;;;7.38;4.30;;;12.20;90.50;;;;;;4913141;29;20437;-83
2022/04/14 02:40:07;;;;;;;6.45;3.97;;;12.20;90.50;;;;;;4872887;29;20032;-83
2022/04/14 02:42:32;;;;;;;6.67;3.87;;;12.20;90.60;;;;;;4902012;29;20251;-83
2022/04/14 02:44:58;;;;;;;5.50;3.53;;;12.20;90.50;;;;;;4887190;29;20043;-83
2022/04/14 02:47:24;;;;;;;6.40;3.97;;;12.10;90.40;;;;;;4891778;29;20028;-83
2022/04/14 02:49:49;;;;;;;6.38;3.83;;;12.10;90.40;;;;;;4876279;29;20473;-84
2022/04/14 02:52:15;;;;;;;7.50;4.43;;;12.10;90.40;;;;;;4888789;29;20063;-83
2022/04/14 02:54:41;;;;;;;7.55;4.93;;;12.10;90.30;;;;;;4899104;29;20179;-83
2022/04/14 02:57:08;;;;;;;8.33;4.67;;;12.10;90.30;;;;;;4875732;29;20031;-83
2022/04/14 02:59:34;;;;;;;6.60;4.40;;;12.00;90.30;;;;;;4888903;29;20546;-83
2022/04/14 03:02:00;;;;;;;9.00;5.05;;;12.00;90.30;;;;;;4890073;29;20397;-83
2022/04/14 03:04:29;;;;;;;7.78;4.50;;;12.00;90.30;;;;;;4887579;29;20239;-83
2022/04/14 03:06:55;;;;;;;10.47;4.80;;;11.90;90.50;;;;;;4872347;29;20042;-83
2022/04/14 03:09:21;;;;;;;7.57;4.50;;;11.90;90.40;;;;;;4909965;29;20039;-83
2022/04/14 03:11:47;;;;;;;7.90;4.45;;;11.90;90.40;;;;;;4896105;29;20048;-83
2022/04/14 03:14:12;;;;;;;7.37;4.23;;;11.90;90.40;;;;;;4895344;29;20028;-83
2022/04/14 03:16:38;;;;;;;7.43;4.50;;;11.90;90.40;;;;;;4892432;29;20296;-84
2022/04/14 03:19:04;;;;;;;7.63;4.43;;;11.80;90.40;;;;;;4882878;29;20040;-83
2022/04/14 03:21:29;;;;;;;8.45;4.15;;;11.80;90.30;;;;;;4858747;29;20151;-83
2022/04/14 03:23:55;;;;;;;7.57;4.17;;;11.80;90.30;;;;;;4901280;29;20477;-83
2022/04/14 03:26:21;;;;;;;7.22;4.30;;;11.80;90.30;;;;;;4883945;29;20056;-83
2022/04/14 03:28:46;;;;;;;8.57;4.77;;;11.70;90.20;;;;;;4901513;29;20028;-83
2022/04/14 03:31:12;;;;;;;7.97;4.47;;;11.70;90.20;;;;;;4887562;29;20270;-83
2022/04/14 03:33:37;;;;;;;7.50;4.50;;;11.70;90.30;;;;;;4866647;29;20031;-83
2022/04/14 03:36:04;;;;;;;8.83;4.17;;;11.70;90.30;;;;;;4907952;29;20020;-83
2022/04/14 03:38:30;;;;;;;8.73;4.45;;;11.60;90.30;;;;;;4878213;29;20191;-83
2022/04/14 03:40:56;;;;;;;10.75;4.72;;;11.60;90.40;;;;;;4896481;29;20040;-83
2022/04/14 03:43:22;;;;;;;13.30;5.00;;;11.60;90.40;;;;;;4882030;29;20056;-84
2022/04/14 03:45:48;;;;;;;8.97;4.53;;;11.60;90.40;;;;;;4898943;29;20512;-83
2022/04/14 03:48:13;;;;;;;8.50;5.00;;;11.60;90.50;;;;;;4870790;29;20492;-83
2022/04/14 03:50:39;;;;;;;7.47;4.50;;;11.50;90.40;;;;;;4877637;29;20519;-83
2022/04/14 03:53:05;;;;;;;8.07;4.78;;;11.50;90.40;;;;;;4860115;29;20043;-83
2022/04/14 03:55:31;;;;;;;7.50;4.70;;;11.50;90.40;;;;;;4896290;29;20028;-83
2022/04/14 03:57:57;;;;;;;9.73;4.72;;;11.50;90.40;;;;;;4896004;29;20259;-84
2022/04/14 04:00:22;;;;;;;9.38;4.38;;;11.40;90.40;;;;;;4898904;29;20641;-84
2022/04/14 04:02:48;;;;;;;7.83;4.53;;;11.50;90.40;;;;;;4885844;29;20031;-83
2022/04/14 04:05:13;;;;;;;8.80;4.37;;;11.40;90.40;;;;;;4880375;29;20511;-83
2022/04/14 04:07:39;;;;;;;6.88;4.30;;;11.40;90.40;;;;;;4888237;29;20485;-83
2022/04/14 04:10:05;;;;;;;6.73;4.03;;;11.40;90.40;;;;;;4888353;29;22081;-83
2022/04/14 04:12:31;;;;;;;6.40;4.22;;;11.40;90.40;;;;;;4889493;29;20901;-83
2022/04/14 04:14:57;;;;;;;7.67;4.10;;;11.30;90.40;;;;;;4902444;29;20046;-83
2022/04/14 04:17:23;;;;;;;8.10;4.32;;;11.30;90.30;;;;;;4889329;29;21640;-83
2022/04/14 04:19:48;;;;;;;6.78;4.55;;;11.30;90.30;;;;;;4886456;29;20032;-83
2022/04/14 04:22:14;;;;;;;6.97;4.63;;;11.20;90.20;;;;;;4907858;29;20238;-83
2022/04/14 04:24:40;;;;;;;6.18;4.10;;;11.20;90.20;;;;;;4884994;29;20543;-83
2022/04/14 04:27:06;;;;;;;6.60;3.90;;;11.20;90.20;;;;;;4922008;28;20124;-83
2022/04/14 04:29:32;;;;;;;6.43;4.13;;;11.20;90.30;;;;;;4890901;29;20074;-83
2022/04/14 04:31:57;;;;;;;6.32;4.00;;;11.10;90.30;;;;;;4903457;29;20063;-83
2022/04/14 04:34:24;;;;;;;5.90;3.73;;;11.10;90.40;;;;;;4876461;29;20829;-83
2022/04/14 04:36:50;;;;;;;5.47;3.67;;;11.10;90.40;;;;;;4903683;29;20760;-83
2022/04/14 04:39:16;;;;;;;5.60;3.60;;;11.10;90.50;;;;;;4886491;29;20043;-83
2022/04/14 04:41:41;;;;;;;5.35;3.70;;;11.10;90.50;;;;;;4901715;29;20066;-84
2022/04/14 04:44:07;;;;;;;6.80;4.20;;;11.00;90.50;;;;;;4901958;29;20028;-84
2022/04/14 04:46:33;;;;;;;7.90;4.10;;;11.00;90.50;;;;;;4904097;29;20108;-83
2022/04/14 04:48:59;;;;;;;6.18;3.95;;;11.00;90.50;;;;;;4870398;29;20039;-83
2022/04/14 04:51:25;;;;;;;7.75;3.78;;;11.00;90.50;;;;;;4868627;29;20242;-84
2022/04/14 04:53:52;;;;;;;5.73;3.60;;;11.00;90.40;;;;;;4907473;29;20032;-83
2022/04/14 04:56:20;;;;;;;6.82;3.88;;;10.90;90.40;;;;;;4893608;29;20329;-83
2022/04/14 04:58:46;;;;;;;5.97;3.60;;;10.90;90.40;;;;;;4887791;29;20124;-83
2022/04/14 05:01:12;;;;;;;5.00;3.53;;;10.90;90.40;;;;;;4879146;29;20351;-83
2022/04/14 05:03:38;;;;;;;5.03;3.33;;;10.90;90.40;;;;;;4888439;29;20024;-83
2022/04/14 05:06:04;;;;;;;5.50;3.80;;;10.90;90.40;;;;;;4898935;28;20124;-83
2022/04/14 05:08:29;;;;;;;8.23;3.70;;;10.80;90.30;;;;;;4888734;29;20055;-83
2022/04/14 05:10:56;;;;;;;5.75;3.80;;;10.80;90.30;;;;;;4891051;29;20095;-83
2022/04/14 05:13:21;;;;;;;5.17;3.67;;;10.80;90.20;;;;;;4917455;29;20020;-83
2022/04/14 05:15:47;;;;;;;4.57;3.30;;;10.70;90.20;;;;;;4896744;29;20040;-83
2022/04/14 05:18:12;;;;;;;5.07;3.53;;;10.70;90.10;;;;;;4894567;29;20052;-83
2022/04/14 05:20:40;;;;;;;4.38;3.03;;;10.70;90.10;;;;;;4886717;29;20024;-83
2022/04/14 05:23:09;;;;;;;4.77;3.33;;;10.60;90.10;;;;;;4892293;29;20033;-83
2022/04/14 05:25:36;;;;;;;5.47;3.55;;;10.60;90.20;;;;;;4887607;29;20478;-83
2022/04/14 05:28:02;;;;;;;5.07;3.88;;;10.60;90.30;;;;;;4902732;29;20324;-83
2022/04/14 05:30:28;;;;;;;5.55;3.78;;;10.50;90.40;;;;;;4901497;29;20032;-83
2022/04/14 05:32:54;;;;;;;7.17;4.20;;;10.50;90.50;;;;;;4899463;29;20496;-83
2022/04/14 05:35:21;;;;;;;5.20;3.83;;;10.60;90.60;;;;;;4894983;29;20088;-84
2022/04/14 05:37:47;;;;;;;9.07;4.03;;;10.50;90.70;;;;;;4853138;29;20032;-83
2022/04/14 05:40:13;;;;;;;6.43;3.87;;;10.60;90.90;;;;;;4881280;29;20028;-83
2022/04/14 05:42:46;;;;;;;7.78;4.45;;;10.60;91.00;;;;;;4903142;29;20111;-84
2022/04/14 05:45:12;;;;;;;8.48;4.13;;;10.60;91.10;;;;;;4914649;29;20782;-84
2022/04/14 05:47:38;;;;;;;5.78;3.67;;;10.60;91.10;;;;;;4892701;29;20032;-84
2022/04/14 05:50:05;;;;;;;6.30;3.80;;;10.70;91.20;;;;;;4874472;29;20020;-84
2022/04/14 05:52:30;;;;;;;6.45;4.20;;;10.70;91.20;;;;;;4858012;29;20060;-84
2022/04/14 05:54:58;;;;;;;6.63;4.00;;;10.70;91.30;;;;;;4893585;29;20024;-84
2022/04/14 05:57:23;;;;;;;6.70;3.77;;;10.70;91.40;;;;;;4897129;29;20032;-83
2022/04/14 05:59:49;;;;;;;10.32;4.22;;;10.80;91.60;;;;;;4892257;29;20248;-83
2022/04/14 06:02:15;;;;;;;9.30;3.83;;;10.90;91.70;;;;;;4894147;29;20035;-83
2022/04/14 06:04:40;;;;;;;6.97;4.15;;;10.90;91.80;;;;;;4894841;29;20071;-83
2022/04/14 06:07:06;;;;;;;5.90;3.70;;;11.00;91.90;;;;;;4904439;28;21361;-83
2022/04/14 06:09:32;;;;;;;8.73;3.72;;;11.10;91.90;;;;;;4893990;29;20485;-83
2022/04/14 06:11:58;;;;;;;6.90;3.90;;;11.20;92.00;;;;;;4874659;29;20192;-84
2022/04/14 06:14:25;;;;;;;8.95;4.18;;;11.20;92.10;;;;;;4896010;29;20524;-83
2022/04/14 06:16:51;;;;;;;6.95;3.97;;;11.30;92.20;;;;;;4894184;29;20392;-83
2022/04/14 06:19:16;;;;;;;6.65;3.83;;;11.50;92.40;;;;;;4884599;29;20032;-83
2022/04/14 06:21:42;;;;;;;5.97;4.00;;;11.50;92.40;;;;;;4882322;29;20071;-84
2022/04/14 06:24:08;;;;;;;6.68;4.55;;;11.60;92.50;;;;;;4865880;29;21145;-83
2022/04/14 06:26:33;;;;;;;6.57;3.87;;;11.70;92.60;;;;;;4890693;29;20483;-83
2022/04/14 06:28:59;;;;;;;6.93;4.63;;;11.90;92.70;;;;;;4873430;29;20028;-83
2022/04/14 06:31:25;;;;;;;6.67;4.53;;;12.00;92.80;;;;;;4892049;29;20044;-83
2022/04/14 06:33:50;;;;;;;6.67;4.47;;;12.10;92.90;;;;;;4904605;28;20055;-83
2022/04/14 06:36:16;;;;;;;7.35;4.32;;;12.20;93.00;;;;;;4897990;29;20520;-83
2022/04/14 06:38:42;;;;;;;7.33;4.80;;;12.40;93.20;;;;;;4875820;29;20087;-83
2022/04/14 06:41:07;;;;;;;7.38;4.80;;;12.50;93.40;;;;;;4879497;29;20628;-83
2022/04/14 06:43:33;;;;;;;8.40;5.40;;;12.70;93.50;;;;;;4893448;29;20036;-83
2022/04/14 06:46:03;;;;;;;8.63;5.68;;;12.80;93.70;;;;;;4881936;29;20109;-84
2022/04/14 06:48:30;;;;;;;9.80;5.78;;;13.00;94.20;;;;;;4879756;29;20496;-84
2022/04/14 06:50:56;;;;;;;8.20;5.32;;;13.30;94.90;;;;;;4873562;29;20040;-83
2022/04/14 06:53:22;;;;;;;8.47;5.43;;;13.60;95.60;;;;;;4876734;29;20040;-84
2022/04/14 06:55:48;;;;;;;8.18;5.65;;;14.00;96.10;;;;;;4879934;29;20044;-84
2022/04/14 06:58:13;;;;;;;10.17;5.83;;;14.40;96.30;;;;;;4898190;29;20214;-84
2022/04/14 07:00:40;;;;;;;9.03;5.87;;;14.90;96.20;;;;;;4906835;28;20281;-84
2022/04/14 07:03:06;;;;;;;11.18;6.50;;;15.30;95.80;;;;;;4903851;28;20468;-84
2022/04/14 07:05:32;;;;;;;9.93;6.47;;;15.70;95.40;;;;;;4923993;29;20016;-84
2022/04/14 07:07:57;;;;;;;10.20;6.40;;;16.10;95.40;;;;;;4874533;29;20122;-84
2022/04/14 07:10:23;;;;;;;9.32;6.07;;;16.40;94.80;;;;;;4866952;29;20035;-86
2022/04/14 07:12:49;;;;;;;9.30;6.33;;;16.80;94.60;;;;;;4886084;29;20067;-85
2022/04/14 07:15:15;;;;;;;9.35;6.10;;;17.20;94.50;;;;;;4902038;28;20063;-85
2022/04/14 07:17:41;;;;;;;9.00;5.80;;;17.50;94.10;;;;;;4887381;29;20529;-84
2022/04/14 07:20:11;;;;;;;8.17;5.80;;;17.80;94.00;;;;;;4877519;29;20259;-85
2022/04/14 07:22:47;;;;;;;8.68;5.60;;;18.20;93.80;;;;;;4887114;29;20106;-85
2022/04/14 07:25:13;;;;;;;7.28;5.18;;;18.70;92.70;;;;;;4876098;29;20312;-86
2022/04/14 07:27:40;;;;;;;9.07;5.50;;;19.00;93.20;;;;;;4877856;29;20094;-85
2022/04/14 07:30:06;;;;;;;7.20;4.97;;;19.50;92.80;;;;;;4882407;29;20024;-85
2022/04/14 07:32:37;;;;;;;8.02;5.25;;;19.90;92.40;;;;;;4859172;29;20028;-85
2022/04/14 07:35:04;;;;;;;7.55;5.28;;;20.30;91.80;;;;;;4884717;29;20135;-85
2022/04/14 07:37:31;;;;;;;7.00;4.65;;;20.70;91.50;;;;;;4887353;29;20319;-86
2022/04/14 07:39:57;;;;;;;5.95;4.50;;;21.10;91.20;;;;;;4859957;29;20552;-86
2022/04/14 07:42:29;;;;;;;6.73;4.43;;;21.50;91.10;;;;;;4878513;29;20055;-86
2022/04/14 07:44:55;;;;;;;6.55;4.40;;;21.90;90.80;;;;;;4886169;29;20036;-86
2022/04/14 07:47:21;;;;;;;7.57;4.70;;;22.40;90.00;;;;;;4890839;29;20028;-85
2022/04/14 07:49:46;;;;;;;7.03;4.35;;;22.70;87.50;;;;;;4876171;29;20055;-87
2022/04/14 07:52:13;;;;;;;5.87;4.20;;;22.90;86.20;;;;;;4862548;29;20531;-86
2022/04/14 07:54:38;;;;;;;6.30;4.20;;;23.20;86.50;;;;;;4881009;29;20036;-85
2022/04/14 07:57:04;;;;;;;4.57;3.47;;;23.50;85.80;;;;;;4861510;29;21483;-86
2022/04/14 07:59:30;;;;;;;5.70;3.85;;;23.70;84.70;;;;;;4877186;29;20039;-87
2022/04/14 08:02:00;;;;;;;4.97;3.73;;;23.90;85.00;;;;;;4877331;29;20226;-87
2022/04/14 08:04:26;;;;;;;5.25;3.78;;;24.20;85.90;;;;;;4893792;29;20035;-86
2022/04/14 08:06:52;;;;;;;4.50;3.45;;;24.50;84.30;;;;;;4874247;29;20028;-87
2022/04/14 08:09:18;;;;;;;4.35;3.28;;;24.80;84.00;;;;;;4858473;29;20052;-86
2022/04/14 08:11:44;;;;;;;6.47;3.70;;;25.00;81.80;;;;;;4860210;29;20641;-87
2022/04/14 08:14:09;;;;;;;4.95;3.63;;;25.20;81.70;;;;;;4865537;29;20032;-87
2022/04/14 08:16:35;;;;;;;4.70;3.57;;;25.40;82.40;;;;;;4888887;29;20044;-86
2022/04/14 08:19:01;;;;;;;5.88;3.35;;;25.60;82.70;;;;;;4875045;29;20147;-86
2022/04/14 08:21:26;;;;;;;3.80;3.20;;;25.90;82.00;;;;;;4889775;29;20036;-87
2022/04/14 08:23:53;;;;;;;4.25;3.20;;;26.10;80.90;;;;;;4860133;29;20401;-87
2022/04/14 08:26:19;;;;;;;5.38;3.25;;;26.30;81.10;;;;;;4901985;28;20139;-87
2022/04/14 08:28:46;;;;;;;5.40;3.10;;;26.50;81.00;;;;;;4885904;29;20126;-87
2022/04/14 08:31:13;;;;;;;4.35;3.67;;;26.70;80.90;;;;;;4879364;29;20059;-87
2022/04/14 08:33:40;;;;;;;4.10;3.22;;;27.00;81.10;;;;;;4875379;29;20534;-87
2022/04/14 08:36:12;;;;;;;3.60;2.85;;;27.10;80.80;;;;;;4878125;29;20500;-86
2022/04/14 08:38:45;;;;;;;5.57;3.10;;;27.30;77.40;;;;;;4884826;29;20088;-87
2022/04/14 08:41:13;;;;;;;3.70;2.77;;;27.50;77.20;;;;;;4870918;29;20033;-88
2022/04/14 08:43:55;;;;;;;3.92;2.78;;;27.60;77.50;;;;;;4879421;29;20032;-87
2022/04/14 08:46:23;;;;;;;4.20;2.92;;;27.70;74.20;;;;;;4910162;29;20031;-88
2022/04/14 08:48:52;;;;;;;4.70;3.10;;;27.80;77.30;;;;;;4879519;29;20040;-87
2022/04/14 08:51:20;;;;;;;3.60;2.92;;;28.00;78.00;;;;;;4876743;29;20205;-88
2022/04/14 08:53:48;;;;;;;3.97;2.67;;;28.20;77.80;;;;;;4889068;29;20043;-88
2022/04/14 08:56:14;;;;;;;3.47;2.38;;;28.40;75.90;;;;;;4863049;29;20063;-88
2022/04/14 08:58:43;;;;;;;4.07;2.80;;;28.50;76.00;;;;;;4874819;29;20142;-87
2022/04/14 09:01:11;;;;;;;3.10;2.50;;;28.70;76.30;;;;;;4879757;29;20388;-87
2022/04/14 09:03:37;;;;;;;3.17;2.35;;;28.80;78.10;;;;;;4890221;29;20274;-88
2022/04/14 09:06:03;;;;;;;3.77;2.53;;;29.00;78.60;;;;;;4911220;29;20016;-88
2022/04/14 09:08:29;;;;;;;3.30;2.33;;;29.20;79.40;;;;;;4896838;29;20408;-88
2022/04/14 09:10:54;;;;;;;3.33;2.43;;;29.50;78.40;;;;;;4867123;29;20454;-87
2022/04/14 09:13:20;;;;;;;2.92;2.33;;;29.60;75.50;;;;;;4864296;29;20143;-88
2022/04/14 09:15:47;;;;;;;3.13;2.60;;;29.70;76.20;;;;;;4893002;29;20223;-86
2022/04/14 09:18:14;;;;;;;4.30;2.67;;;29.80;76.40;;;;;;4882627;29;20024;-88
2022/04/14 09:20:42;;;;;;;3.80;2.40;;;29.90;76.00;;;;;;4863829;29;20084;-88
2022/04/14 09:23:12;;;;;;;3.03;2.58;;;30.00;75.90;;;;;;4898036;29;20250;-88
2022/04/14 09:25:39;;;;;;;4.00;2.50;;;30.10;73.80;;;;;;4881570;29;20427;-88
2022/04/14 09:28:13;;;;;;;3.10;2.30;;;30.20;77.10;;;;;;4877704;29;20032;-87
2022/04/14 09:30:40;;;;;;;2.93;2.30;;;30.30;71.10;;;;;;4882528;29;20040;-88
2022/04/14 09:33:16;;;;;;;2.78;2.20;;;30.50;76.50;;;;;;4885061;29;20032;-88
2022/04/14 09:35:42;;;;;;;3.97;2.10;;;30.60;70.50;;;;;;4857033;29;20227;-88
2022/04/14 09:38:08;;;;;;;3.63;2.33;;;30.80;78.90;;;;;;4892220;29;20095;-87
2022/04/14 09:40:34;;;;;;;3.60;2.60;;;30.90;74.90;;;;;;4899313;29;20405;-88
2022/04/14 09:43:00;;;;;;;4.07;2.65;;;31.10;76.70;;;;;;4874314;29;20540;-89
2022/04/14 09:45:28;;;;;;;3.30;2.25;;;31.20;76.60;;;;;;4870402;29;20032;-88
2022/04/14 09:48:00;;;;;;;5.10;2.60;;;31.40;76.30;;;;;;4880615;29;20017;-88
2022/04/14 09:50:39;;;;;;;4.03;2.30;;;31.60;76.10;;;;;;4878711;29;20040;-88
2022/04/14 09:53:13;;;;;;;3.17;2.20;;;31.60;72.40;;;;;;4892669;29;20024;-88
2022/04/14 09:55:54;;;;;;;2.72;2.25;;;31.60;69.60;;;;;;4881061;29;20543;-89
2022/04/14 09:58:24;;;;;;;3.33;2.15;;;31.80;72.40;;;;;;4890717;29;20121;-87
2022/04/14 10:00:52;;;;;;;2.65;2.03;;;31.80;75.20;;;;;;4877314;29;20028;-88
2022/04/14 10:03:31;;;;;;;3.23;2.10;;;31.90;74.90;;;;;;4890761;29;20471;-88
2022/04/14 10:05:58;;;;;;;3.47;2.33;;;31.90;66.50;;;;;;4888863;29;20036;-88
2022/04/14 10:08:25;;;;;;;2.95;2.30;;;31.90;74.10;;;;;;4885400;29;20118;-88
2022/04/14 10:11:04;;;;;;;3.22;2.13;;;31.90;76.30;;;;;;4904360;29;20122;-88
2022/04/14 10:13:35;;;;;;;3.33;2.10;;;32.10;68.30;;;;;;4903115;29;20102;-86
2022/04/14 10:16:02;;;;;;;2.83;2.30;;;32.30;70.70;;;;;;4896241;29;20576;-88
2022/04/14 10:18:28;;;;;;;3.88;2.10;;;32.50;77.10;;;;;;4884005;29;20067;-88
2022/04/14 10:20:54;;;;;;;2.67;1.75;;;32.70;78.00;;;;;;4877442;29;22029;-88
2022/04/14 10:23:22;;;;;;;3.67;2.30;;;32.90;77.80;;;;;;4861828;29;20032;-87
2022/04/14 10:25:50;;;;;;;3.30;2.22;;;33.20;75.60;;;;;;4884953;29;20352;-86
2022/04/14 10:28:17;;;;;;;2.90;2.10;;;33.20;74.40;;;;;;4899597;29;21010;-86
2022/04/14 10:30:49;;;;;;;4.78;2.30;;;33.20;74.10;;;;;;4862617;29;20195;-88
2022/04/14 10:33:14;;;;;;;3.78;2.40;;;33.20;68.10;;;;;;4892021;29;20087;-88
2022/04/14 10:35:40;;;;;;;2.73;2.00;;;33.10;72.80;;;;;;4891506;29;20509;-88
2022/04/14 10:38:29;;;;;;;3.38;1.90;;;33.00;68.60;;;;;;4861752;29;20037;-86
2022/04/14 10:41:13;;;;;;;2.50;1.92;;;32.80;60.80;;;;;;4892279;29;20095;-88
2022/04/14 10:43:43;;;;;;;3.15;1.90;;;32.50;63.80;;;;;;4884322;29;20127;-87
2022/04/14 10:46:17;;;;;;;3.60;2.07;;;32.20;65.60;;;;;;4881410;29;20441;-87
2022/04/14 10:48:45;;;;;;;3.50;2.10;;;31.90;68.10;;;;;;4879018;29;20044;-87
2022/04/14 10:51:26;;;;;;;3.63;2.20;;;31.50;67.50;;;;;;4885174;29;20028;-88
2022/04/14 10:54:00;;;;;;;3.83;2.30;;;31.10;61.30;;;;;;4883525;29;20517;-88
2022/04/14 10:56:34;;;;;;;3.70;2.47;;;30.70;63.30;;;;;;4882966;29;20425;-88
2022/04/14 10:59:03;;;;;;;5.40;2.30;;;30.30;62.50;;;;;;4874763;29;20040;-88
2022/04/14 11:01:48;;;;;;;4.35;2.75;;;30.10;70.10;;;;;;4894066;29;20479;-87
2022/04/14 11:04:37;;;;;;;4.10;2.40;;;30.00;62.10;;;;;;4878590;29;20039;-88
2022/04/14 11:07:08;;;;;;;4.57;2.50;;;30.20;64.70;;;;;;4892560;29;20319;-88
2022/04/14 11:12:08;;;;;;;5.00;2.90;;;30.00;65.20;;;;;;4891749;29;20195;-87
2022/04/14 11:14:44;;;;;;;5.38;3.13;;;29.90;66.50;;;;;;4903414;29;20331;-87
2022/04/14 11:17:38;;;;;;;4.85;2.95;;;29.70;67.40;;;;;;4903430;29;20489;-88
2022/04/14 11:20:23;;;;;;;5.30;2.90;;;29.70;64.70;;;;;;4893450;29;20032;-88
2022/04/14 11:23:15;;;;;;;4.38;3.00;;;29.80;64.50;;;;;;4892139;29;20036;-88
2022/04/14 11:25:47;;;;;;;4.73;2.80;;;29.80;62.90;;;;;;4861837;29;20536;-88
2022/04/14 11:28:36;;;;;;;3.97;2.70;;;29.70;70.30;;;;;;4876022;29;20032;-88
2022/04/14 11:31:17;;;;;;;5.03;2.92;;;29.70;67.40;;;;;;4909150;29;20024;-86
2022/04/14 11:33:44;;;;;;;4.13;2.83;;;29.80;65.80;;;;;;4864670;29;20123;-89
2022/04/14 11:36:14;;;;;;;3.72;2.53;;;30.00;72.50;;;;;;4888365;29;20512;-87
2022/04/14 11:38:56;;;;;;;4.17;2.80;;;30.30;74.00;;;;;;4863355;29;20036;-86
2022/04/14 11:41:46;;;;;;;4.45;2.60;;;30.70;66.30;;;;;;4873364;29;20381;-88
2022/04/14 11:44:22;;;;;;;3.53;2.50;;;31.20;68.30;;;;;;4888023;29;20032;-87
2022/04/14 11:46:52;;;;;;;4.45;2.35;;;31.70;70.20;;;;;;4894644;29;20043;-87
2022/04/14 11:49:21;;;;;;;3.28;2.33;;;32.00;72.20;;;;;;4863807;29;20043;-85
2022/04/14 11:51:47;;;;;;;4.53;2.67;;;32.20;69.30;;;;;;4881393;29;20140;-86
2022/04/14 11:54:22;;;;;;;3.45;2.70;;;32.10;67.10;;;;;;4860184;29;20119;-85
2022/04/14 11:56:52;;;;;;;3.70;2.60;;;32.00;61.40;;;;;;4864448;29;20068;-87
2022/04/14 11:59:32;;;;;;;3.05;2.40;;;31.70;60.60;;;;;;4879662;29;20087;-85
2022/04/14 12:02:01;;;;;;;3.15;2.58;;;31.30;61.30;;;;;;4891086;29;20502;-86
2022/04/14 12:04:32;;;;;;;3.40;2.40;;;30.80;60.10;;;;;;4853958;29;20252;-87
2022/04/14 12:06:58;;;;;;;3.58;2.85;;;30.50;61.70;;;;;;4890543;29;20095;-88
2022/04/14 12:09:24;;;;;;;4.72;3.47;;;30.20;61.70;;;;;;4890597;29;20432;-87
2022/04/14 12:11:51;;;;;;;5.22;3.65;;;29.90;61.70;;;;;;4871864;29;20036;-87
2022/04/14 12:14:17;;;;;;;5.17;3.77;;;29.60;61.30;;;;;;4862566;29;20674;-88
2022/04/14 12:16:53;;;;;;;5.57;3.78;;;29.30;61.30;;;;;;4916312;29;20327;-88
2022/04/14 12:19:22;;;;;;;4.75;3.80;;;29.10;57.80;;;;;;4892304;29;20154;-88
2022/04/14 12:22:01;;;;;;;5.35;3.90;;;28.80;59.80;;;;;;4905046;29;20025;-87
2022/04/14 12:24:27;;;;;;;5.00;3.53;;;28.60;58.00;;;;;;4890837;29;20299;-87
2022/04/14 12:26:54;;;;;;;6.45;3.83;;;28.30;61.40;;;;;;4866775;29;20068;-86
2022/04/14 12:29:21;;;;;;;6.10;3.65;;;28.20;61.80;;;;;;4860464;29;20127;-87
2022/04/14 12:31:46;;;;;;;5.00;3.40;;;28.00;62.60;;;;;;4877378;29;20032;-86
2022/04/14 12:34:12;;;;;;;4.30;3.00;;;28.00;62.70;;;;;;4889538;29;21117;-86
2022/04/14 12:36:38;;;;;;;4.65;3.10;;;27.90;63.10;;;;;;4885660;29;20399;-88
2022/04/14 12:39:15;;;;;;;4.85;3.20;;;27.90;63.80;;;;;;4893404;29;20032;-86
2022/04/14 12:41:41;;;;;;;5.63;3.00;;;28.00;64.50;;;;;;4912758;29;20588;-84
2022/04/14 12:44:07;;;;;;;4.25;3.13;;;28.20;67.90;;;;;;4887097;29;20036;-86
2022/04/14 12:46:38;;;;;;;4.75;3.22;;;28.60;69.50;;;;;;4888259;29;20019;-84
2022/04/14 12:49:13;;;;;;;4.10;2.90;;;29.00;66.60;;;;;;4910367;29;20619;-85
2022/04/14 12:51:50;;;;;;;5.25;3.20;;;29.20;68.10;;;;;;4861806;29;20016;-86